createdAt,value
2018-03-31T00:00:15.321Z,0.00
2018-03-31T00:01:12.665Z,0.00
2018-03-31T00:02:12.781Z,0.00
2018-03-31T00:03:12.781Z,0.00
2018-03-31T00:04:12.793Z,0.00
2018-03-31T00:05:12.802Z,0.00
2018-03-31T00:06:14.738Z,0.00
2018-03-31T00:07:12.709Z,0.00
2018-03-31T00:08:12.619Z,0.00
2018-03-31T00:09:12.618Z,0.00
2018-03-31T00:10:12.431Z,0.00
2018-03-31T00:11:12.830Z,0.00
2018-03-31T00:12:12.849Z,0.00
2018-03-31T00:13:12.846Z,0.00
2018-03-31T00:14:12.849Z,0.00
2018-03-31T00:15:12.874Z,0.00
2018-03-31T00:16:12.861Z,0.00
2018-03-31T00:17:14.134Z,0.00
2018-03-31T00:18:13.118Z,0.00
2018-03-31T00:19:14.154Z,0.00
2018-03-31T00:20:13.138Z,0.00
2018-03-31T00:21:12.905Z,0.00
2018-03-31T00:22:12.710Z,0.00
2018-03-31T00:23:12.731Z,0.00
2018-03-31T00:24:12.719Z,0.00
2018-03-31T00:25:12.631Z,0.00
2018-03-31T00:26:12.536Z,0.00
2018-03-31T00:27:13.993Z,0.00
2018-03-31T00:28:12.638Z,0.00
2018-03-31T00:29:12.653Z,0.00
2018-03-31T00:30:12.669Z,0.00
2018-03-31T00:31:13.699Z,0.00
2018-03-31T00:32:12.612Z,0.00
2018-03-31T00:33:12.582Z,0.00
2018-03-31T00:34:12.689Z,0.00
2018-03-31T00:35:12.598Z,0.00
2018-03-31T00:36:13.630Z,0.00
2018-03-31T00:37:12.720Z,0.00
2018-03-31T00:38:12.962Z,0.00
2018-03-31T00:39:12.622Z,0.00
2018-03-31T00:40:12.637Z,0.00
2018-03-31T00:41:12.748Z,0.00
2018-03-31T00:42:12.754Z,0.00
2018-03-31T00:43:12.763Z,0.00
2018-03-31T00:44:12.762Z,0.00
2018-03-31T00:45:12.802Z,0.00
2018-03-31T00:46:12.681Z,0.00
2018-03-31T00:47:12.699Z,0.00
2018-03-31T00:48:12.689Z,0.00
2018-03-31T00:49:12.806Z,0.00
2018-03-31T00:50:13.838Z,0.00
2018-03-31T00:51:12.823Z,0.00
2018-03-31T00:52:12.726Z,0.00
2018-03-31T00:53:12.834Z,0.00
2018-03-31T00:54:12.842Z,0.00
2018-03-31T00:55:12.861Z,0.00
2018-03-31T00:56:12.649Z,0.00
2018-03-31T00:57:12.657Z,0.00
2018-03-31T00:58:12.665Z,0.00
2018-03-31T00:59:12.679Z,0.00
2018-03-31T01:00:14.031Z,0.00
2018-03-31T01:01:12.682Z,0.00
2018-03-31T01:02:12.714Z,0.00
2018-03-31T01:03:12.691Z,0.00
2018-03-31T01:04:12.706Z,0.00
2018-03-31T01:05:12.720Z,0.00
2018-03-31T01:06:12.713Z,0.00
2018-03-31T01:07:13.759Z,0.00
2018-03-31T01:08:12.743Z,0.00
2018-03-31T01:09:12.739Z,0.00
2018-03-31T01:10:12.745Z,0.00
2018-03-31T01:11:12.753Z,0.00
2018-03-31T01:12:12.564Z,0.00
2018-03-31T01:13:12.577Z,0.00
2018-03-31T01:14:12.791Z,0.00
2018-03-31T01:15:12.785Z,0.00
2018-03-31T01:16:12.795Z,0.00
2018-03-31T01:17:12.803Z,0.00
2018-03-31T01:18:13.427Z,0.00
2018-03-31T01:19:13.841Z,0.00
2018-03-31T01:20:12.840Z,0.00
2018-03-31T01:21:12.822Z,0.00
2018-03-31T01:22:12.843Z,0.00
2018-03-31T01:23:12.860Z,0.00
2018-03-31T01:24:12.854Z,0.00
2018-03-31T01:25:12.858Z,0.00
2018-03-31T01:26:13.683Z,0.00
2018-03-31T01:27:12.861Z,0.00
2018-03-31T01:28:13.706Z,0.00
2018-03-31T01:29:12.672Z,0.00
2018-03-31T01:30:13.728Z,0.00
2018-03-31T01:31:12.707Z,0.00
2018-03-31T01:32:12.714Z,0.00
2018-03-31T01:33:12.705Z,0.00
2018-03-31T01:34:12.727Z,0.00
2018-03-31T01:35:12.725Z,0.00
2018-03-31T01:36:12.730Z,0.00
2018-03-31T01:37:12.746Z,0.00
2018-03-31T01:38:12.746Z,0.00
2018-03-31T01:39:12.988Z,0.00
2018-03-31T01:40:12.995Z,0.00
2018-03-31T01:41:12.682Z,0.00
2018-03-31T01:42:12.676Z,0.00
2018-03-31T01:43:12.678Z,0.00
2018-03-31T01:44:13.026Z,0.00
2018-03-31T01:45:12.695Z,0.00
2018-03-31T01:46:12.715Z,0.00
2018-03-31T01:47:12.711Z,0.00
2018-03-31T01:48:14.870Z,0.00
2018-03-31T01:49:12.824Z,0.00
2018-03-31T01:50:14.043Z,0.00
2018-03-31T01:51:12.737Z,0.00
2018-03-31T01:52:12.857Z,0.00
2018-03-31T01:53:12.850Z,0.00
2018-03-31T01:54:12.878Z,0.00
2018-03-31T01:55:12.898Z,0.00
2018-03-31T01:56:12.875Z,0.00
2018-03-31T01:57:12.883Z,0.00
2018-03-31T01:58:12.894Z,0.00
2018-03-31T01:59:12.900Z,0.00
2018-03-31T02:00:14.035Z,0.00
2018-03-31T02:01:12.701Z,0.00
2018-03-31T02:02:12.951Z,0.00
2018-03-31T02:03:12.731Z,0.00
2018-03-31T02:04:12.725Z,0.00
2018-03-31T02:05:12.745Z,0.00
2018-03-31T02:06:12.760Z,0.00
2018-03-31T02:07:12.750Z,0.00
2018-03-31T02:08:12.763Z,0.00
2018-03-31T02:09:12.767Z,0.00
2018-03-31T02:10:12.774Z,0.00
2018-03-31T02:11:12.787Z,0.00
2018-03-31T02:12:12.686Z,0.00
2018-03-31T02:13:12.695Z,0.00
2018-03-31T02:14:14.062Z,0.00
2018-03-31T02:15:12.705Z,0.00
2018-03-31T02:16:12.723Z,0.00
2018-03-31T02:17:12.722Z,0.00
2018-03-31T02:18:13.883Z,0.00
2018-03-31T02:19:14.080Z,0.00
2018-03-31T02:20:12.747Z,0.00
2018-03-31T02:21:25.802Z,0.00
2018-03-31T02:22:29.598Z,0.00
2018-03-31T02:23:33.192Z,0.00
2018-03-31T02:24:29.908Z,0.00
2018-03-31T02:25:28.212Z,0.00
2018-03-31T02:26:12.885Z,0.00
2018-03-31T02:27:12.901Z,0.00
2018-03-31T02:28:12.911Z,0.00
2018-03-31T02:29:12.910Z,0.00
2018-03-31T02:30:12.931Z,0.00
2018-03-31T02:31:12.927Z,0.00
2018-03-31T02:32:12.934Z,0.00
2018-03-31T02:33:12.733Z,0.00
2018-03-31T02:34:12.744Z,0.00
2018-03-31T02:35:12.755Z,0.00
2018-03-31T02:36:13.780Z,0.00
2018-03-31T02:37:13.794Z,0.00
2018-03-31T02:38:12.793Z,0.00
2018-03-31T02:39:13.005Z,0.00
2018-03-31T02:40:12.607Z,0.00
2018-03-31T02:41:12.585Z,0.00
2018-03-31T02:42:12.722Z,0.00
2018-03-31T02:43:13.863Z,0.00
2018-03-31T02:44:13.055Z,0.00
2018-03-31T02:45:12.721Z,0.00
2018-03-31T02:46:12.732Z,0.00
2018-03-31T02:47:12.741Z,0.00
2018-03-31T02:48:13.882Z,0.00
2018-03-31T02:49:13.883Z,0.00
2018-03-31T02:50:13.107Z,0.00
2018-03-31T02:51:12.771Z,0.00
2018-03-31T02:52:12.910Z,0.00
2018-03-31T02:53:12.784Z,0.00
2018-03-31T02:54:12.693Z,0.00
2018-03-31T02:55:12.701Z,0.00
2018-03-31T02:56:13.139Z,0.00
2018-03-31T02:57:12.714Z,0.00
2018-03-31T02:58:12.626Z,0.00
2018-03-31T02:59:12.628Z,0.00
2018-03-31T03:00:16.981Z,0.00
2018-03-31T03:01:12.749Z,0.00
2018-03-31T03:02:12.652Z,0.00
2018-03-31T03:03:12.760Z,0.00
2018-03-31T03:04:12.865Z,0.00
2018-03-31T03:05:13.203Z,0.00
2018-03-31T03:06:12.770Z,0.00
2018-03-31T03:07:15.371Z,0.00
2018-03-31T03:08:12.784Z,0.00
2018-03-31T03:09:13.025Z,0.00
2018-03-31T03:10:12.590Z,0.00
2018-03-31T03:11:12.727Z,0.00
2018-03-31T03:12:12.711Z,0.00
2018-03-31T03:13:15.640Z,0.00
2018-03-31T03:14:12.625Z,0.00
2018-03-31T03:15:12.742Z,0.00
2018-03-31T03:16:12.756Z,0.00
2018-03-31T03:17:12.890Z,0.00
2018-03-31T03:18:12.754Z,0.00
2018-03-31T03:19:12.770Z,0.00
2018-03-31T03:20:12.783Z,0.00
2018-03-31T03:21:13.863Z,0.00
2018-03-31T03:22:13.923Z,0.00
2018-03-31T03:23:13.129Z,0.00
2018-03-31T03:24:12.806Z,0.00
2018-03-31T03:25:12.710Z,0.00
2018-03-31T03:26:12.937Z,0.00
2018-03-31T03:27:12.722Z,0.00
2018-03-31T03:28:15.238Z,0.00
2018-03-31T03:29:12.734Z,0.00
2018-03-31T03:30:12.948Z,0.00
2018-03-31T03:31:12.747Z,0.00
2018-03-31T03:32:12.753Z,0.00
2018-03-31T03:33:12.769Z,0.00
2018-03-31T03:34:12.986Z,0.00
2018-03-31T03:35:12.778Z,0.00
2018-03-31T03:36:12.799Z,0.00
2018-03-31T03:37:12.792Z,0.00
2018-03-31T03:38:12.798Z,0.00
2018-03-31T03:39:12.818Z,0.00
2018-03-31T03:40:12.811Z,0.00
2018-03-31T03:41:12.820Z,0.00
2018-03-31T03:42:12.830Z,0.00
2018-03-31T03:43:12.843Z,0.00
2018-03-31T03:44:12.842Z,0.00
2018-03-31T03:45:12.850Z,0.00
2018-03-31T03:46:12.858Z,0.00
2018-03-31T03:47:12.865Z,0.00
2018-03-31T03:48:12.878Z,0.00
2018-03-31T03:49:12.886Z,0.00
2018-03-31T03:50:13.123Z,0.00
2018-03-31T03:51:13.131Z,0.00
2018-03-31T03:52:12.825Z,0.00
2018-03-31T03:53:12.914Z,0.00
2018-03-31T03:54:12.819Z,0.00
2018-03-31T03:55:12.834Z,0.00
2018-03-31T03:56:14.189Z,0.00
2018-03-31T03:57:12.750Z,0.00
2018-03-31T03:58:12.748Z,0.00
2018-03-31T03:59:12.757Z,0.00
2018-03-31T04:00:14.504Z,0.00
2018-03-31T04:01:12.772Z,0.00
2018-03-31T04:02:12.779Z,0.00
2018-03-31T04:03:12.770Z,0.00
2018-03-31T04:04:12.909Z,0.00
2018-03-31T04:05:12.790Z,0.00
2018-03-31T04:06:12.793Z,0.00
2018-03-31T04:07:12.818Z,0.00
2018-03-31T04:08:14.071Z,0.00
2018-03-31T04:09:12.838Z,0.00
2018-03-31T04:10:12.833Z,0.00
2018-03-31T04:11:12.735Z,0.00
2018-03-31T04:12:12.742Z,0.00
2018-03-31T04:13:12.848Z,0.00
2018-03-31T04:14:12.873Z,0.00
2018-03-31T04:15:12.867Z,0.00
2018-03-31T04:16:12.873Z,0.00
2018-03-31T04:17:12.899Z,0.00
2018-03-31T04:18:12.902Z,0.00
2018-03-31T04:19:12.893Z,0.00
2018-03-31T04:20:12.900Z,0.00
2018-03-31T04:21:12.908Z,0.00
2018-03-31T04:22:16.631Z,0.00
2018-03-31T04:23:12.826Z,0.00
2018-03-31T04:24:12.840Z,0.00
2018-03-31T04:25:12.944Z,0.00
2018-03-31T04:26:15.618Z,0.00
2018-03-31T04:27:12.864Z,0.00
2018-03-31T04:28:12.866Z,0.00
2018-03-31T04:29:12.868Z,0.00
2018-03-31T04:30:12.888Z,0.00
2018-03-31T04:31:12.869Z,0.00
2018-03-31T04:32:12.887Z,0.00
2018-03-31T04:33:12.794Z,0.00
2018-03-31T04:34:13.133Z,0.00
2018-03-31T04:35:13.133Z,0.00
2018-03-31T04:36:13.150Z,0.00
2018-03-31T04:37:14.175Z,0.00
2018-03-31T04:38:12.836Z,0.00
2018-03-31T04:39:13.754Z,0.00
2018-03-31T04:40:12.872Z,0.00
2018-03-31T04:41:12.759Z,0.00
2018-03-31T04:42:12.962Z,0.00
2018-03-31T04:43:12.767Z,0.00
2018-03-31T04:44:12.770Z,0.00
2018-03-31T04:45:12.779Z,0.00
2018-03-31T04:46:12.682Z,0.00
2018-03-31T04:47:12.688Z,0.00
2018-03-31T04:48:12.796Z,0.00
2018-03-31T04:49:12.833Z,0.00
2018-03-31T04:50:12.809Z,0.00
2018-03-31T04:51:12.817Z,0.00
2018-03-31T04:52:12.821Z,0.00
2018-03-31T04:53:12.832Z,0.00
2018-03-31T04:54:15.205Z,0.00
2018-03-31T04:55:12.893Z,0.00
2018-03-31T04:56:12.858Z,0.00
2018-03-31T04:57:12.858Z,0.00
2018-03-31T04:58:12.897Z,0.00
2018-03-31T04:59:12.878Z,0.00
2018-03-31T05:00:18.101Z,0.00
2018-03-31T05:01:12.894Z,0.00
2018-03-31T05:02:12.794Z,0.28
2018-03-31T05:03:12.805Z,0.56
2018-03-31T05:04:12.910Z,0.56
2018-03-31T05:05:12.922Z,0.56
2018-03-31T05:06:12.938Z,0.56
2018-03-31T05:07:12.830Z,0.56
2018-03-31T05:08:12.950Z,0.56
2018-03-31T05:09:12.946Z,0.56
2018-03-31T05:10:13.982Z,0.56
2018-03-31T05:11:12.965Z,0.56
2018-03-31T05:12:12.987Z,0.56
2018-03-31T05:13:12.973Z,0.56
2018-03-31T05:14:12.998Z,0.56
2018-03-31T05:15:12.986Z,0.56
2018-03-31T05:16:12.803Z,0.56
2018-03-31T05:17:12.810Z,0.56
2018-03-31T05:18:12.813Z,0.56
2018-03-31T05:19:12.820Z,0.56
2018-03-31T05:20:12.817Z,0.56
2018-03-31T05:21:12.938Z,0.56
2018-03-31T05:22:12.840Z,0.56
2018-03-31T05:23:12.849Z,0.56
2018-03-31T05:24:12.851Z,0.56
2018-03-31T05:25:13.117Z,0.56
2018-03-31T05:26:12.771Z,0.56
2018-03-31T05:27:12.765Z,0.56
2018-03-31T05:28:12.784Z,0.56
2018-03-31T05:29:12.890Z,0.56
2018-03-31T05:30:12.798Z,0.84
2018-03-31T05:31:12.802Z,0.84
2018-03-31T05:32:12.804Z,0.84
2018-03-31T05:33:12.947Z,0.84
2018-03-31T05:34:12.823Z,0.84
2018-03-31T05:35:14.330Z,0.84
2018-03-31T05:36:12.842Z,0.84
2018-03-31T05:37:12.849Z,0.84
2018-03-31T05:38:12.949Z,0.84
2018-03-31T05:39:12.958Z,0.84
2018-03-31T05:40:12.988Z,0.84
2018-03-31T05:41:13.998Z,0.84
2018-03-31T05:42:12.982Z,0.84
2018-03-31T05:43:13.023Z,0.84
2018-03-31T05:44:15.754Z,0.84
2018-03-31T05:45:13.353Z,0.84
2018-03-31T05:46:13.241Z,0.84
2018-03-31T05:47:12.817Z,0.84
2018-03-31T05:48:12.834Z,0.84
2018-03-31T05:49:12.834Z,0.84
2018-03-31T05:50:12.847Z,0.84
2018-03-31T05:51:12.851Z,0.84
2018-03-31T05:52:12.862Z,0.84
2018-03-31T05:53:12.874Z,0.84
2018-03-31T05:54:12.870Z,0.84
2018-03-31T05:55:15.927Z,0.84
2018-03-31T05:56:12.778Z,0.84
2018-03-31T05:57:12.899Z,0.84
2018-03-31T05:58:12.801Z,0.84
2018-03-31T05:59:12.897Z,0.84
2018-03-31T06:00:14.259Z,0.84
2018-03-31T06:01:12.922Z,0.56
2018-03-31T06:02:12.926Z,0.28
2018-03-31T06:03:12.941Z,0.56
2018-03-31T06:04:12.928Z,0.84
2018-03-31T06:05:12.846Z,1.40
2018-03-31T06:06:12.953Z,2.24
2018-03-31T06:07:12.954Z,3.35
2018-03-31T06:08:12.972Z,4.47
2018-03-31T06:09:13.015Z,5.31
2018-03-31T06:10:12.986Z,5.87
2018-03-31T06:11:13.100Z,6.98
2018-03-31T06:12:14.282Z,7.54
2018-03-31T06:13:17.923Z,7.82
2018-03-31T06:14:16.723Z,8.10
2018-03-31T06:15:15.231Z,8.10
2018-03-31T06:16:13.846Z,8.38
2018-03-31T06:17:13.569Z,8.38
2018-03-31T06:18:22.054Z,8.66
2018-03-31T06:19:12.862Z,8.94
2018-03-31T06:20:13.082Z,9.22
2018-03-31T06:21:19.258Z,9.22
2018-03-31T06:22:13.249Z,9.50
2018-03-31T06:23:13.373Z,9.78
2018-03-31T06:24:14.311Z,9.78
2018-03-31T06:25:14.562Z,10.06
2018-03-31T06:26:13.111Z,10.06
2018-03-31T06:27:12.810Z,10.34
2018-03-31T06:28:13.035Z,10.62
2018-03-31T06:29:19.061Z,10.34
2018-03-31T06:30:12.871Z,10.62
2018-03-31T06:31:12.634Z,10.62
2018-03-31T06:32:12.833Z,10.90
2018-03-31T06:33:19.294Z,11.18
2018-03-31T06:34:12.745Z,11.46
2018-03-31T06:35:20.130Z,11.73
2018-03-31T06:36:12.865Z,11.73
2018-03-31T06:37:21.337Z,11.73
2018-03-31T06:38:12.877Z,12.01
2018-03-31T06:39:14.209Z,12.01
2018-03-31T06:40:12.789Z,12.01
2018-03-31T06:41:14.257Z,12.01
2018-03-31T06:42:12.704Z,12.29
2018-03-31T06:43:12.824Z,12.57
2018-03-31T06:44:12.822Z,12.57
2018-03-31T06:45:12.716Z,12.57
2018-03-31T06:46:18.773Z,12.85
2018-03-31T06:47:12.833Z,12.85
2018-03-31T06:48:12.858Z,12.85
2018-03-31T06:49:12.866Z,12.85
2018-03-31T06:50:13.248Z,12.85
2018-03-31T06:51:12.993Z,13.13
2018-03-31T06:52:12.884Z,13.13
2018-03-31T06:53:12.894Z,13.13
2018-03-31T06:54:12.894Z,13.41
2018-03-31T06:55:13.118Z,13.41
2018-03-31T06:56:12.910Z,13.41
2018-03-31T06:57:12.909Z,13.41
2018-03-31T06:58:12.931Z,13.41
2018-03-31T06:59:13.026Z,13.41
2018-03-31T07:00:14.367Z,13.69
2018-03-31T07:01:12.955Z,13.69
2018-03-31T07:02:12.860Z,13.41
2018-03-31T07:03:12.959Z,13.13
2018-03-31T07:04:12.961Z,12.57
2018-03-31T07:05:12.971Z,11.73
2018-03-31T07:06:13.006Z,10.62
2018-03-31T07:07:13.222Z,9.50
2018-03-31T07:08:12.969Z,8.94
2018-03-31T07:09:12.899Z,8.38
2018-03-31T07:10:12.903Z,7.26
2018-03-31T07:11:13.251Z,6.71
2018-03-31T07:12:12.914Z,6.43
2018-03-31T07:13:12.931Z,6.15
2018-03-31T07:14:12.838Z,6.15
2018-03-31T07:15:13.051Z,5.87
2018-03-31T07:16:15.859Z,5.87
2018-03-31T07:17:12.854Z,5.59
2018-03-31T07:18:12.899Z,5.31
2018-03-31T07:19:12.879Z,5.03
2018-03-31T07:20:13.086Z,5.03
2018-03-31T07:21:13.087Z,4.75
2018-03-31T07:22:12.924Z,4.47
2018-03-31T07:23:12.915Z,4.47
2018-03-31T07:24:13.340Z,4.19
2018-03-31T07:25:12.942Z,4.19
2018-03-31T07:26:12.916Z,3.91
2018-03-31T07:27:12.938Z,3.63
2018-03-31T07:28:13.169Z,3.63
2018-03-31T07:29:12.843Z,3.35
2018-03-31T07:30:12.850Z,3.35
2018-03-31T07:31:12.851Z,3.07
2018-03-31T07:32:13.218Z,2.79
2018-03-31T07:33:12.867Z,2.51
2018-03-31T07:34:12.873Z,2.24
2018-03-31T07:35:12.902Z,2.24
2018-03-31T07:36:12.891Z,2.24
2018-03-31T07:37:13.158Z,1.96
2018-03-31T07:38:12.926Z,1.96
2018-03-31T07:39:12.915Z,1.96
2018-03-31T07:40:12.933Z,1.96
2018-03-31T07:41:16.279Z,1.68
2018-03-31T07:42:12.931Z,1.40
2018-03-31T07:43:12.833Z,1.40
2018-03-31T07:44:12.853Z,1.40
2018-03-31T07:45:14.074Z,1.12
2018-03-31T07:46:12.866Z,1.12
2018-03-31T07:47:12.878Z,1.12
2018-03-31T07:48:12.879Z,1.12
2018-03-31T07:49:13.087Z,1.12
2018-03-31T07:50:13.090Z,0.84
2018-03-31T07:51:12.957Z,0.84
2018-03-31T07:52:12.898Z,0.84
2018-03-31T07:53:12.811Z,0.56
2018-03-31T07:54:13.136Z,0.56
2018-03-31T07:55:13.125Z,0.56
2018-03-31T07:56:13.143Z,0.56
2018-03-31T07:57:12.933Z,0.56
2018-03-31T07:58:12.946Z,0.56
2018-03-31T07:59:12.954Z,0.28
2018-03-31T08:00:14.403Z,0.28
2018-03-31T08:01:12.954Z,0.28
2018-03-31T08:02:12.991Z,0.28
2018-03-31T08:03:13.021Z,0.28
2018-03-31T08:04:12.986Z,0.28
2018-03-31T08:05:13.012Z,0.28
2018-03-31T08:06:13.002Z,0.28
2018-03-31T08:07:13.021Z,0.00
2018-03-31T08:08:13.032Z,0.00
2018-03-31T08:09:13.028Z,0.00
2018-03-31T08:10:13.034Z,0.00
2018-03-31T08:11:13.042Z,0.00
2018-03-31T08:12:13.041Z,0.00
2018-03-31T08:13:13.057Z,0.00
2018-03-31T08:14:13.070Z,0.00
2018-03-31T08:15:13.074Z,0.00
2018-03-31T08:16:14.354Z,0.00
2018-03-31T08:17:13.125Z,0.00
2018-03-31T08:18:13.099Z,0.00
2018-03-31T08:19:12.738Z,0.00
2018-03-31T08:20:15.802Z,0.00
2018-03-31T08:21:13.531Z,0.00
2018-03-31T08:22:12.809Z,0.00
2018-03-31T08:23:13.138Z,0.00
2018-03-31T08:24:13.241Z,0.00
2018-03-31T08:25:13.138Z,0.00
2018-03-31T08:26:13.154Z,0.00
2018-03-31T08:27:13.159Z,0.00
2018-03-31T08:28:13.167Z,0.00
2018-03-31T08:29:13.169Z,0.00
2018-03-31T08:30:12.870Z,0.00
2018-03-31T08:31:12.878Z,0.28
2018-03-31T08:32:15.966Z,0.28
2018-03-31T08:33:12.889Z,0.28
2018-03-31T08:34:12.896Z,0.28
2018-03-31T08:35:12.907Z,0.28
2018-03-31T08:36:13.122Z,0.28
2018-03-31T08:37:12.823Z,0.28
2018-03-31T08:38:12.825Z,0.28
2018-03-31T08:39:13.038Z,0.56
2018-03-31T08:40:12.942Z,0.56
2018-03-31T08:41:12.957Z,1.12
2018-03-31T08:42:13.185Z,1.40
2018-03-31T08:43:12.869Z,1.40
2018-03-31T08:44:12.982Z,1.40
2018-03-31T08:45:13.014Z,1.40
2018-03-31T08:46:13.031Z,1.40
2018-03-31T08:47:14.137Z,1.40
2018-03-31T08:48:12.938Z,1.40
2018-03-31T08:49:13.053Z,1.40
2018-03-31T08:50:13.021Z,1.40
2018-03-31T08:51:13.058Z,1.68
2018-03-31T08:52:12.970Z,1.68
2018-03-31T08:53:13.046Z,1.68
2018-03-31T08:54:13.041Z,1.68
2018-03-31T08:55:13.050Z,1.68
2018-03-31T08:56:13.066Z,2.24
2018-03-31T08:57:13.063Z,2.24
2018-03-31T08:58:13.072Z,2.24
2018-03-31T08:59:13.080Z,2.24
2018-03-31T09:00:14.427Z,2.24
2018-03-31T09:01:13.130Z,2.24
2018-03-31T09:02:13.131Z,2.24
2018-03-31T09:03:13.972Z,2.51
2018-03-31T09:04:12.913Z,2.51
2018-03-31T09:05:12.920Z,2.51
2018-03-31T09:06:12.926Z,2.79
2018-03-31T09:07:12.946Z,2.79
2018-03-31T09:08:14.091Z,2.79
2018-03-31T09:09:15.788Z,2.79
2018-03-31T09:10:12.964Z,2.79
2018-03-31T09:11:12.961Z,2.79
2018-03-31T09:12:12.978Z,2.79
2018-03-31T09:13:12.999Z,3.07
2018-03-31T09:14:13.025Z,3.07
2018-03-31T09:15:13.026Z,3.07
2018-03-31T09:16:14.030Z,3.07
2018-03-31T09:17:13.030Z,3.07
2018-03-31T09:18:14.053Z,3.07
2018-03-31T09:19:13.056Z,3.07
2018-03-31T09:20:13.026Z,3.07
2018-03-31T09:21:12.947Z,3.07
2018-03-31T09:22:12.940Z,3.07
2018-03-31T09:23:13.059Z,3.07
2018-03-31T09:24:13.062Z,3.35
2018-03-31T09:25:13.071Z,3.35
2018-03-31T09:26:13.011Z,3.35
2018-03-31T09:27:12.978Z,3.35
2018-03-31T09:28:13.330Z,3.35
2018-03-31T09:29:18.460Z,3.35
2018-03-31T09:30:22.358Z,3.07
2018-03-31T09:31:12.906Z,3.07
2018-03-31T09:32:12.912Z,3.07
2018-03-31T09:33:12.921Z,3.07
2018-03-31T09:34:12.830Z,3.07
2018-03-31T09:35:12.940Z,3.07
2018-03-31T09:36:12.949Z,3.07
2018-03-31T09:37:12.971Z,3.07
2018-03-31T09:38:12.962Z,3.07
2018-03-31T09:39:12.965Z,3.35
2018-03-31T09:40:12.962Z,2.79
2018-03-31T09:41:12.979Z,2.51
2018-03-31T09:42:13.015Z,2.51
2018-03-31T09:43:12.997Z,2.51
2018-03-31T09:44:13.004Z,2.79
2018-03-31T09:45:12.911Z,2.79
2018-03-31T09:46:12.918Z,2.79
2018-03-31T09:47:13.302Z,2.79
2018-03-31T09:48:12.836Z,2.79
2018-03-31T09:49:12.929Z,2.79
2018-03-31T09:50:20.322Z,2.51
2018-03-31T09:51:15.002Z,2.51
2018-03-31T09:52:12.966Z,2.51
2018-03-31T09:53:12.963Z,2.51
2018-03-31T09:54:15.580Z,2.51
2018-03-31T09:55:12.990Z,1.96
2018-03-31T09:56:12.984Z,1.96
2018-03-31T09:57:12.993Z,1.96
2018-03-31T09:58:12.800Z,1.96
2018-03-31T09:59:12.917Z,1.96
2018-03-31T10:00:14.137Z,1.96
2018-03-31T10:01:13.291Z,1.96
2018-03-31T10:02:12.946Z,1.68
2018-03-31T10:03:12.950Z,1.68
2018-03-31T10:04:12.957Z,1.68
2018-03-31T10:05:12.945Z,1.40
2018-03-31T10:06:12.862Z,1.40
2018-03-31T10:07:12.762Z,1.40
2018-03-31T10:08:12.877Z,1.40
2018-03-31T10:09:12.970Z,1.40
2018-03-31T10:10:12.982Z,1.40
2018-03-31T10:11:12.885Z,1.40
2018-03-31T10:12:13.002Z,1.12
2018-03-31T10:13:13.010Z,1.12
2018-03-31T10:14:13.036Z,1.12
2018-03-31T10:15:12.539Z,1.12
2018-03-31T10:16:12.962Z,1.12
2018-03-31T10:17:12.977Z,1.12
2018-03-31T10:18:12.978Z,1.12
2018-03-31T10:19:12.985Z,1.12
2018-03-31T10:20:12.994Z,1.12
2018-03-31T10:21:12.999Z,1.12
2018-03-31T10:22:13.000Z,1.12
2018-03-31T10:23:13.016Z,0.84
2018-03-31T10:24:13.122Z,0.84
2018-03-31T10:25:13.042Z,0.84
2018-03-31T10:26:12.997Z,0.84
2018-03-31T10:27:13.014Z,0.84
2018-03-31T10:28:13.015Z,0.84
2018-03-31T10:29:13.070Z,0.84
2018-03-31T10:30:13.020Z,0.84
2018-03-31T10:31:12.968Z,0.84
2018-03-31T10:32:12.929Z,0.84
2018-03-31T10:33:12.948Z,0.84
2018-03-31T10:34:12.987Z,0.84
2018-03-31T10:35:13.000Z,0.84
2018-03-31T10:36:12.967Z,0.84
2018-03-31T10:37:12.982Z,0.56
2018-03-31T10:38:12.979Z,0.28
2018-03-31T10:39:12.990Z,0.28
2018-03-31T10:40:13.020Z,0.28
2018-03-31T10:41:13.017Z,0.28
2018-03-31T10:42:13.009Z,0.28
2018-03-31T10:43:13.022Z,0.00
2018-03-31T10:44:13.015Z,0.00
2018-03-31T10:45:13.042Z,0.00
2018-03-31T10:46:12.981Z,0.00
2018-03-31T10:47:12.987Z,0.00
2018-03-31T10:48:12.950Z,0.00
2018-03-31T10:49:12.958Z,0.00
2018-03-31T10:50:12.981Z,0.00
2018-03-31T10:51:12.973Z,0.00
2018-03-31T10:52:12.981Z,0.00
2018-03-31T10:53:12.990Z,0.00
2018-03-31T10:54:12.999Z,0.00
2018-03-31T10:55:13.002Z,0.00
2018-03-31T10:56:12.906Z,0.00
2018-03-31T10:57:13.014Z,0.00
2018-03-31T10:58:13.022Z,0.00
2018-03-31T10:59:13.037Z,0.00
2018-03-31T11:00:14.216Z,0.00
2018-03-31T11:01:13.046Z,0.00
2018-03-31T11:02:12.964Z,0.00
2018-03-31T11:03:12.966Z,0.00
2018-03-31T11:04:12.965Z,0.00
2018-03-31T11:05:12.975Z,0.00
2018-03-31T11:06:13.494Z,0.00
2018-03-31T11:07:15.666Z,0.00
2018-03-31T11:08:12.989Z,0.00
2018-03-31T11:09:13.006Z,0.00
2018-03-31T11:10:13.005Z,0.00
2018-03-31T11:11:13.017Z,0.00
2018-03-31T11:12:13.034Z,0.00
2018-03-31T11:13:13.071Z,0.00
2018-03-31T11:14:13.039Z,0.00
2018-03-31T11:15:13.053Z,0.00
2018-03-31T11:16:13.046Z,0.00
2018-03-31T11:17:12.950Z,0.00
2018-03-31T11:18:13.011Z,0.00
2018-03-31T11:19:13.010Z,0.00
2018-03-31T11:20:14.208Z,0.00
2018-03-31T11:21:13.029Z,0.00
2018-03-31T11:22:13.032Z,0.00
2018-03-31T11:23:15.832Z,0.00
2018-03-31T11:24:13.004Z,0.00
2018-03-31T11:25:13.024Z,0.00
2018-03-31T11:26:13.062Z,0.00
2018-03-31T11:27:13.075Z,0.00
2018-03-31T11:28:13.079Z,0.00
2018-03-31T11:29:13.046Z,0.00
2018-03-31T11:30:15.109Z,0.00
2018-03-31T11:31:13.065Z,0.00
2018-03-31T11:32:12.999Z,0.00
2018-03-31T11:33:12.973Z,0.00
2018-03-31T11:34:15.677Z,0.00
2018-03-31T11:35:14.125Z,0.00
2018-03-31T11:36:12.996Z,0.00
2018-03-31T11:37:13.006Z,0.00
2018-03-31T11:38:13.580Z,0.00
2018-03-31T11:39:13.019Z,0.00
2018-03-31T11:40:13.026Z,0.00
2018-03-31T11:41:13.053Z,0.00
2018-03-31T11:42:12.940Z,0.00
2018-03-31T11:43:13.055Z,0.00
2018-03-31T11:44:13.058Z,0.00
2018-03-31T11:45:12.967Z,0.00
2018-03-31T11:46:13.485Z,0.00
2018-03-31T11:47:13.086Z,0.00
2018-03-31T11:48:12.983Z,0.00
2018-03-31T11:49:12.991Z,0.00
2018-03-31T11:50:12.994Z,0.00
2018-03-31T11:51:13.458Z,0.00
2018-03-31T11:52:13.105Z,0.00
2018-03-31T11:53:13.337Z,0.00
2018-03-31T11:54:13.023Z,0.00
2018-03-31T11:55:13.242Z,0.00
2018-03-31T11:56:12.935Z,0.00
2018-03-31T11:57:13.220Z,0.00
2018-03-31T11:58:12.958Z,0.00
2018-03-31T11:59:13.298Z,0.00
2018-03-31T12:00:14.834Z,0.00
2018-03-31T12:01:13.377Z,0.00
2018-03-31T12:02:13.085Z,0.00
2018-03-31T12:03:13.330Z,0.00
2018-03-31T12:04:13.518Z,0.00
2018-03-31T12:05:13.003Z,0.00
2018-03-31T12:06:13.009Z,0.00
2018-03-31T12:07:13.009Z,0.00
2018-03-31T12:08:13.233Z,0.28
2018-03-31T12:09:13.621Z,0.28
2018-03-31T12:10:13.045Z,0.28
2018-03-31T12:11:13.182Z,0.28
2018-03-31T12:12:13.262Z,0.56
2018-03-31T12:13:13.379Z,0.56
2018-03-31T12:14:13.238Z,0.56
2018-03-31T12:15:13.282Z,0.56
2018-03-31T12:16:13.432Z,0.56
2018-03-31T12:17:13.301Z,0.56
2018-03-31T12:18:13.389Z,0.56
2018-03-31T12:19:13.459Z,0.84
2018-03-31T12:20:13.112Z,0.84
2018-03-31T12:21:13.284Z,0.84
2018-03-31T12:22:19.468Z,0.84
2018-03-31T12:23:13.066Z,0.84
2018-03-31T12:24:13.227Z,0.84
2018-03-31T12:25:13.491Z,0.84
2018-03-31T12:26:13.090Z,1.12
2018-03-31T12:27:13.096Z,1.12
2018-03-31T12:28:13.105Z,1.12
2018-03-31T12:29:13.302Z,1.12
2018-03-31T12:30:13.113Z,1.12
2018-03-31T12:31:13.130Z,1.12
2018-03-31T12:32:13.129Z,1.12
2018-03-31T12:33:13.512Z,1.12
2018-03-31T12:34:13.380Z,1.12
2018-03-31T12:35:13.052Z,1.12
2018-03-31T12:36:13.544Z,1.12
2018-03-31T12:37:13.066Z,1.12
2018-03-31T12:38:13.078Z,1.12
2018-03-31T12:39:13.331Z,1.12
2018-03-31T12:40:13.322Z,1.12
2018-03-31T12:41:13.927Z,1.12
2018-03-31T12:42:13.284Z,1.12
2018-03-31T12:43:13.173Z,1.12
2018-03-31T12:44:13.190Z,1.12
2018-03-31T12:45:13.213Z,1.12
2018-03-31T12:46:13.206Z,1.40
2018-03-31T12:47:13.241Z,1.40
2018-03-31T12:48:13.443Z,1.40
2018-03-31T12:49:13.450Z,1.40
2018-03-31T12:50:13.493Z,1.40
2018-03-31T12:51:13.250Z,1.40
2018-03-31T12:52:13.308Z,1.40
2018-03-31T12:53:13.040Z,1.40
2018-03-31T12:54:13.050Z,1.40
2018-03-31T12:55:14.309Z,1.40
2018-03-31T12:56:13.068Z,1.40
2018-03-31T12:57:13.088Z,1.40
2018-03-31T12:58:13.086Z,1.40
2018-03-31T12:59:13.319Z,1.40
2018-03-31T13:00:14.223Z,1.40
2018-03-31T13:01:13.110Z,1.40
2018-03-31T13:02:13.113Z,1.40
2018-03-31T13:03:13.354Z,1.40
2018-03-31T13:04:13.020Z,1.68
2018-03-31T13:05:13.039Z,1.68
2018-03-31T13:06:13.043Z,1.68
2018-03-31T13:07:13.155Z,1.40
2018-03-31T13:08:13.063Z,1.40
2018-03-31T13:09:13.063Z,1.40
2018-03-31T13:10:13.070Z,1.40
2018-03-31T13:11:13.079Z,1.40
2018-03-31T13:12:13.180Z,1.12
2018-03-31T13:13:13.222Z,1.12
2018-03-31T13:14:13.201Z,1.12
2018-03-31T13:15:13.210Z,1.12
2018-03-31T13:16:13.225Z,1.12
2018-03-31T13:17:13.217Z,1.12